createdAt,value
2019-05-29T00:04:55.438Z,16.10
2019-05-29T00:10:18.409Z,16.04
2019-05-29T00:15:40.582Z,15.87
2019-05-29T00:21:02.382Z,15.81
2019-05-29T00:26:23.863Z,15.76
2019-05-29T00:31:45.385Z,15.82
2019-05-29T00:37:06.866Z,15.79
2019-05-29T00:42:28.696Z,15.39
2019-05-29T00:47:50.150Z,15.80
2019-05-29T00:53:12.213Z,15.77
2019-05-29T00:58:34.210Z,15.84
2019-05-29T01:03:55.789Z,15.93
2019-05-29T01:09:17.248Z,15.76
2019-05-29T01:14:49.742Z,15.61
2019-05-29T01:20:03.050Z,15.71
2019-05-29T01:25:24.584Z,15.73
2019-05-29T01:30:46.399Z,15.77
2019-05-29T01:36:08.170Z,15.79
2019-05-29T01:41:29.495Z,15.58
2019-05-29T01:46:51.279Z,15.63
2019-05-29T01:52:12.875Z,15.72
2019-05-29T01:57:34.373Z,15.57
2019-05-29T02:02:55.951Z,15.68
2019-05-29T02:08:18.062Z,15.62
2019-05-29T02:13:39.969Z,15.67
2019-05-29T02:19:01.705Z,15.58
2019-05-29T02:24:23.522Z,15.47
2019-05-29T02:29:44.995Z,15.40
2019-05-29T02:35:07.013Z,15.31
2019-05-29T02:40:30.063Z,15.14
2019-05-29T02:45:54.776Z,15.17
2019-05-29T02:51:15.707Z,15.01
2019-05-29T02:56:37.005Z,15.03
2019-05-29T03:01:59.166Z,14.99
2019-05-29T03:07:22.200Z,14.81
2019-05-29T03:12:43.960Z,14.86
2019-05-29T03:18:05.865Z,15.06
2019-05-29T03:23:29.123Z,15.20
2019-05-29T03:28:51.362Z,15.25
2019-05-29T03:34:13.067Z,15.40
2019-05-29T03:39:34.724Z,15.38
2019-05-29T03:44:56.482Z,15.39
2019-05-29T03:50:26.491Z,15.58
2019-05-29T03:55:49.698Z,15.40
2019-05-29T04:01:11.245Z,15.53
2019-05-29T04:06:33.417Z,15.54
2019-05-29T04:11:55.545Z,15.64
2019-05-29T04:17:19.380Z,15.69
2019-05-29T04:22:43.747Z,15.87
2019-05-29T04:28:07.710Z,15.79
2019-05-29T04:33:30.550Z,16.02
2019-05-29T04:38:53.278Z,16.32
2019-05-29T04:44:14.810Z,16.55
2019-05-29T04:49:37.870Z,16.67
2019-05-29T04:54:59.783Z,16.81
2019-05-29T05:00:21.386Z,17.13
2019-05-29T05:05:43.123Z,17.42
2019-05-29T05:11:05.088Z,17.59
2019-05-29T05:16:26.685Z,17.95
2019-05-29T05:21:48.155Z,18.19
2019-05-29T05:27:09.773Z,18.47
2019-05-29T05:32:32.639Z,18.66
2019-05-29T05:37:54.926Z,18.97
2019-05-29T05:43:24.060Z,19.39
2019-05-29T05:48:41.610Z,19.88
2019-05-29T05:54:03.533Z,20.26
2019-05-29T05:59:25.198Z,20.59
2019-05-29T06:04:46.655Z,20.87
2019-05-29T06:10:08.903Z,21.05
2019-05-29T06:15:32.254Z,21.17
2019-05-29T06:20:54.010Z,21.33
2019-05-29T06:26:15.841Z,21.45
2019-05-29T06:31:37.506Z,21.72
2019-05-29T06:36:59.237Z,21.87
2019-05-29T06:42:21.154Z,21.99
2019-05-29T06:47:44.602Z,22.18
2019-05-29T06:53:06.380Z,22.12
2019-05-29T06:58:28.029Z,22.16
2019-05-29T07:03:50.241Z,22.37
2019-05-29T07:09:12.371Z,22.35
2019-05-29T07:14:33.749Z,22.35
2019-05-29T07:20:03.140Z,22.53
2019-05-29T07:25:19.058Z,22.61
2019-05-29T07:30:44.164Z,22.85
2019-05-29T07:36:04.774Z,23.03
2019-05-29T07:41:27.182Z,23.29
2019-05-29T07:46:49.428Z,23.61
2019-05-29T07:52:11.542Z,23.88
2019-05-29T07:57:33.314Z,23.96
2019-05-29T08:02:54.897Z,24.19
2019-05-29T08:08:16.580Z,24.07
2019-05-29T08:13:39.418Z,24.32
2019-05-29T08:19:01.238Z,24.47
2019-05-29T08:24:24.850Z,24.67
2019-05-29T08:29:47.155Z,24.77
2019-05-29T08:35:09.981Z,24.57
2019-05-29T08:40:31.555Z,24.34
2019-05-29T08:45:53.478Z,24.56
2019-05-29T08:51:14.914Z,24.61
2019-05-29T08:56:36.881Z,24.78
2019-05-29T09:01:58.401Z,25.05
2019-05-29T09:07:20.120Z,24.83
2019-05-29T09:12:41.523Z,25.02
2019-05-29T09:18:03.256Z,25.11
2019-05-29T09:23:26.366Z,25.36
2019-05-29T09:28:47.996Z,25.64
2019-05-29T09:34:09.407Z,25.85
2019-05-29T09:39:31.165Z,26.21
2019-05-29T09:44:52.901Z,26.20
2019-05-29T09:50:15.605Z,26.24
2019-05-29T09:55:37.973Z,26.30
2019-05-29T10:01:18.609Z,26.34
2019-05-29T10:06:23.990Z,26.40
2019-05-29T10:11:45.281Z,26.45
2019-05-29T10:17:11.848Z,26.59
2019-05-29T10:22:31.060Z,26.76
2019-05-29T10:27:52.965Z,26.68
2019-05-29T10:33:14.985Z,26.82
2019-05-29T10:38:36.454Z,26.92
2019-05-29T10:43:58.030Z,26.99
2019-05-29T10:49:19.778Z,27.03
2019-05-29T10:54:41.496Z,27.16
2019-05-29T11:00:03.149Z,27.33
2019-05-29T11:05:24.840Z,27.47
2019-05-29T11:10:47.909Z,27.48
2019-05-29T11:16:09.584Z,27.66
2019-05-29T11:21:31.300Z,27.86
2019-05-29T11:26:54.667Z,28.19
2019-05-29T11:32:16.190Z,28.16
2019-05-29T11:37:37.931Z,28.38
2019-05-29T11:42:59.703Z,28.33
2019-05-29T11:48:21.190Z,28.31
2019-05-29T11:53:42.613Z,28.41
2019-05-29T11:59:05.031Z,28.75
2019-05-29T12:04:27.117Z,29.10
2019-05-29T12:09:49.131Z,29.25
2019-05-29T12:15:15.993Z,29.65
2019-05-29T12:20:35.170Z,29.09
2019-05-29T12:26:16.641Z,29.24
2019-05-29T12:31:20.610Z,29.07
2019-05-29T12:36:42.327Z,28.57
2019-05-29T12:42:04.458Z,28.59
2019-05-29T12:47:26.044Z,29.88
2019-05-29T12:52:48.150Z,30.98
2019-05-29T12:58:09.884Z,31.42
2019-05-29T13:03:31.690Z,32.76
2019-05-29T13:08:54.575Z,31.87
2019-05-29T13:14:16.456Z,31.04
2019-05-29T13:19:38.168Z,30.98
2019-05-29T13:24:59.791Z,32.55
2019-05-29T13:30:21.847Z,33.32
2019-05-29T13:35:43.497Z,33.62
2019-05-29T13:41:06.499Z,33.75
2019-05-29T13:46:30.077Z,34.72
2019-05-29T13:51:51.984Z,34.47
2019-05-29T13:57:13.495Z,34.68
2019-05-29T14:02:35.386Z,33.67
2019-05-29T14:07:56.925Z,33.65
2019-05-29T14:13:18.584Z,34.28
2019-05-29T14:18:40.113Z,34.56
2019-05-29T14:24:07.364Z,34.56
2019-05-29T14:29:26.035Z,34.66
2019-05-29T14:34:49.219Z,33.75
2019-05-29T14:40:12.295Z,32.23
2019-05-29T14:45:33.657Z,31.27
2019-05-29T14:50:55.516Z,31.88
2019-05-29T14:56:17.169Z,33.39
2019-05-29T15:01:38.995Z,34.35
2019-05-29T15:07:00.780Z,34.40
2019-05-29T15:12:22.370Z,34.91
2019-05-29T15:17:44.299Z,35.26
2019-05-29T15:23:07.509Z,34.84
2019-05-29T15:28:30.664Z,33.71
2019-05-29T15:33:52.643Z,34.32
2019-05-29T15:39:17.823Z,33.79
2019-05-29T15:45:18.172Z,33.55
2019-05-29T15:50:41.615Z,33.25
2019-05-29T15:56:18.036Z,32.54
2019-05-29T16:01:27.214Z,31.14
2019-05-29T16:06:49.248Z,30.34
2019-05-29T16:12:10.713Z,29.67
2019-05-29T16:17:32.860Z,29.59
2019-05-29T16:22:54.897Z,30.07
2019-05-29T16:28:17.245Z,30.41
2019-05-29T16:33:38.900Z,30.00
2019-05-29T16:39:00.760Z,30.22
2019-05-29T16:44:27.322Z,30.26
2019-05-29T16:49:45.909Z,29.42
2019-05-29T16:55:07.832Z,28.55
2019-05-29T17:00:29.766Z,28.28
2019-05-29T17:05:51.131Z,27.91
2019-05-29T17:11:12.731Z,27.33
2019-05-29T17:16:34.176Z,27.00
2019-05-29T17:21:56.052Z,26.46
2019-05-29T17:27:18.722Z,26.25
2019-05-29T17:32:43.588Z,25.90
2019-05-29T17:38:05.056Z,25.77
2019-05-29T17:43:28.632Z,25.58
2019-05-29T17:48:50.111Z,25.43
2019-05-29T17:54:11.970Z,25.36
2019-05-29T17:59:33.818Z,25.19
2019-05-29T18:04:55.826Z,25.07
2019-05-29T18:10:19.381Z,24.86
2019-05-29T18:15:42.043Z,24.94
2019-05-29T18:21:03.757Z,24.95
2019-05-29T18:26:27.455Z,24.84
2019-05-29T18:31:49.300Z,24.52
2019-05-29T18:37:11.847Z,24.66
2019-05-29T18:42:33.786Z,24.66
2019-05-29T18:47:55.353Z,24.58
2019-05-29T18:53:16.846Z,24.36
2019-05-29T18:58:38.721Z,24.24
2019-05-29T19:04:00.504Z,24.25
2019-05-29T19:09:29.797Z,24.27
2019-05-29T19:15:26.064Z,24.03
2019-05-29T19:20:43.784Z,23.60
2019-05-29T19:26:05.579Z,23.40
2019-05-29T19:31:29.037Z,23.16
2019-05-29T19:36:51.186Z,22.75
2019-05-29T19:42:13.346Z,22.46
2019-05-29T19:47:35.566Z,22.16
2019-05-29T19:52:56.886Z,21.88
2019-05-29T19:58:18.688Z,21.51
2019-05-29T20:03:40.101Z,21.13
2019-05-29T20:09:01.697Z,20.89
2019-05-29T20:14:23.353Z,20.85
2019-05-29T20:19:45.185Z,20.70
2019-05-29T20:25:07.592Z,20.41
2019-05-29T20:30:30.277Z,20.28
2019-05-29T20:35:51.977Z,20.10
2019-05-29T20:41:13.598Z,20.09
2019-05-29T20:46:35.153Z,19.93
2019-05-29T20:51:56.932Z,19.78
2019-05-29T20:57:18.995Z,19.73
2019-05-29T21:02:42.329Z,19.65
2019-05-29T21:08:04.381Z,19.44
2019-05-29T21:13:26.199Z,19.27
2019-05-29T21:18:47.579Z,19.28
2019-05-29T21:24:09.358Z,19.21
2019-05-29T21:29:31.112Z,18.97
2019-05-29T21:34:53.105Z,18.97
2019-05-29T21:40:15.354Z,18.93
2019-05-29T21:45:36.851Z,18.87
2019-05-29T21:50:58.479Z,18.85
2019-05-29T21:56:20.333Z,18.89
2019-05-29T22:01:42.119Z,18.78
2019-05-29T22:07:04.366Z,18.75
2019-05-29T22:12:25.815Z,18.72
2019-05-29T22:17:47.500Z,18.65
2019-05-29T22:23:09.236Z,18.50
2019-05-29T22:28:31.213Z,18.52
2019-05-29T22:33:53.385Z,18.23
2019-05-29T22:39:15.239Z,18.28
2019-05-29T22:44:36.756Z,18.11
2019-05-29T22:49:59.634Z,18.10
2019-05-29T22:55:21.761Z,18.10
2019-05-29T23:00:43.629Z,18.08
2019-05-29T23:06:05.338Z,17.91
2019-05-29T23:11:27.129Z,17.74
2019-05-29T23:16:48.980Z,17.70
2019-05-29T23:22:10.347Z,17.63
2019-05-29T23:27:32.307Z,17.60
2019-05-29T23:32:54.882Z,17.73
2019-05-29T23:38:16.550Z,17.72
2019-05-29T23:43:38.117Z,17.60
2019-05-29T23:48:59.741Z,17.63
2019-05-29T23:54:21.298Z,17.66
2019-05-29T23:59:42.866Z,17.55
